createdAt,value
2023-02-11T00:00:42.344Z,7.36
2023-02-11T00:03:09.093Z,7.44
2023-02-11T00:05:35.597Z,6.73
2023-02-11T00:08:02.062Z,6.79
2023-02-11T00:10:28.505Z,7.02
2023-02-11T00:12:54.915Z,6.95
2023-02-11T00:15:21.447Z,7.21
2023-02-11T00:17:47.868Z,7.36
2023-02-11T00:20:14.402Z,6.72
2023-02-11T00:22:40.826Z,7.25
2023-02-11T00:25:07.374Z,7.33
2023-02-11T00:27:33.803Z,7.05
2023-02-11T00:30:02.399Z,6.57
2023-02-11T00:32:28.813Z,7.00
2023-02-11T00:34:55.466Z,7.22
2023-02-11T00:37:22.376Z,7.25
2023-02-11T00:39:50.194Z,6.72
2023-02-11T00:42:16.945Z,7.00
2023-02-11T00:44:43.333Z,6.91
2023-02-11T00:47:09.749Z,6.90
2023-02-11T00:49:36.934Z,7.10
2023-02-11T00:52:03.499Z,6.78
2023-02-11T00:54:30.115Z,6.47
2023-02-11T00:56:56.527Z,6.66
2023-02-11T00:59:22.995Z,6.84
2023-02-11T01:01:49.467Z,6.80
2023-02-11T01:04:15.927Z,6.57
2023-02-11T01:06:42.344Z,6.65
2023-02-11T01:09:08.756Z,6.64
2023-02-11T01:11:35.430Z,6.25
2023-02-11T01:14:01.877Z,6.40
2023-02-11T01:16:28.366Z,6.69
2023-02-11T01:18:54.818Z,6.58
2023-02-11T01:21:21.250Z,6.46
2023-02-11T01:23:47.705Z,6.73
2023-02-11T01:26:14.108Z,6.13
2023-02-11T01:28:40.570Z,6.47
2023-02-11T01:31:07.189Z,6.54
2023-02-11T01:33:33.835Z,6.45
2023-02-11T01:36:02.716Z,6.71
2023-02-11T01:38:29.175Z,6.45
2023-02-11T01:41:00.972Z,6.56
2023-02-11T01:43:33.230Z,6.54
2023-02-11T01:46:07.300Z,6.46
2023-02-11T01:48:39.413Z,6.07
2023-02-11T01:51:27.192Z,6.51
2023-02-11T01:54:12.804Z,6.37
2023-02-11T01:57:01.562Z,6.25
2023-02-11T01:59:30.894Z,6.40
2023-02-11T02:02:00.736Z,6.14
2023-02-11T02:04:31.576Z,5.89
2023-02-11T02:07:10.612Z,5.95
2023-02-11T02:09:41.530Z,6.36
2023-02-11T02:12:08.015Z,6.32
2023-02-11T02:14:38.471Z,6.30
2023-02-11T02:17:04.919Z,6.40
2023-02-11T02:19:43.847Z,6.32
2023-02-11T02:22:45.974Z,6.47
2023-02-11T02:25:27.596Z,6.47
2023-02-11T02:28:03.238Z,6.44
2023-02-11T02:31:00.364Z,6.41
2023-02-11T02:33:37.827Z,6.13
2023-02-11T02:36:20.888Z,6.32
2023-02-11T02:38:56.148Z,6.40
2023-02-11T02:41:27.477Z,5.66
2023-02-11T02:43:54.147Z,6.48
2023-02-11T02:46:32.433Z,6.34
2023-02-11T02:48:59.287Z,6.53
2023-02-11T02:51:51.677Z,6.47
2023-02-11T02:54:36.880Z,6.51
2023-02-11T02:57:41.047Z,6.47
2023-02-11T03:00:10.413Z,6.53
2023-02-11T03:03:01.029Z,6.54
2023-02-11T03:05:49.573Z,6.52
2023-02-11T03:08:37.852Z,6.50
2023-02-11T03:11:05.104Z,6.40
2023-02-11T03:13:34.154Z,6.63
2023-02-11T03:16:13.713Z,6.62
2023-02-11T03:18:43.060Z,6.29
2023-02-11T03:21:11.028Z,6.62
2023-02-11T03:23:40.610Z,6.65
2023-02-11T03:26:29.058Z,6.26
2023-02-11T03:29:08.438Z,6.38
2023-02-11T03:32:07.437Z,6.49
2023-02-11T03:34:59.861Z,6.50
2023-02-11T03:37:40.904Z,6.19
2023-02-11T03:40:14.080Z,6.33
2023-02-11T03:42:44.951Z,6.40
2023-02-11T03:45:15.508Z,5.81
2023-02-11T03:47:45.378Z,6.37
2023-02-11T03:50:12.824Z,6.26
2023-02-11T03:52:39.346Z,6.28
2023-02-11T03:55:16.247Z,6.02
2023-02-11T03:57:42.735Z,5.96
2023-02-11T04:00:10.331Z,6.30
2023-02-11T04:02:38.759Z,6.27
2023-02-11T04:05:07.070Z,6.16
2023-02-11T04:07:33.851Z,6.35
2023-02-11T04:10:00.750Z,6.11
2023-02-11T04:12:27.162Z,5.75
2023-02-11T04:14:53.628Z,6.09
2023-02-11T04:17:20.018Z,5.57
2023-02-11T04:19:46.446Z,6.32
2023-02-11T04:22:12.874Z,6.29
2023-02-11T04:24:39.358Z,5.87
2023-02-11T04:27:05.912Z,6.27
2023-02-11T04:29:32.330Z,6.37
2023-02-11T04:31:58.813Z,6.14
2023-02-11T04:34:25.447Z,6.33
2023-02-11T04:36:51.962Z,6.22
2023-02-11T04:39:18.513Z,6.27
2023-02-11T04:41:44.922Z,6.39
2023-02-11T04:44:11.349Z,6.04
2023-02-11T04:46:37.746Z,5.80
2023-02-11T04:49:04.287Z,6.41
2023-02-11T04:51:31.559Z,6.53
2023-02-11T04:53:57.981Z,6.31
2023-02-11T04:56:24.385Z,6.38
2023-02-11T04:58:50.848Z,6.14
2023-02-11T05:01:17.435Z,6.36
2023-02-11T05:03:43.905Z,6.26
2023-02-11T05:06:11.332Z,6.45
2023-02-11T05:08:37.962Z,6.41
2023-02-11T05:11:04.555Z,6.02
2023-02-11T05:13:31.461Z,6.20
2023-02-11T05:15:57.886Z,6.37
2023-02-11T05:18:24.407Z,5.88
2023-02-11T05:20:50.872Z,6.35
2023-02-11T05:23:17.275Z,5.84
2023-02-11T05:25:43.657Z,6.17
2023-02-11T05:28:10.186Z,6.61
2023-02-11T05:30:36.651Z,6.16
2023-02-11T05:33:03.116Z,6.36
2023-02-11T05:35:29.518Z,5.95
2023-02-11T05:37:55.947Z,6.37
2023-02-11T05:40:22.375Z,6.53
2023-02-11T05:42:48.825Z,6.31
2023-02-11T05:45:15.294Z,6.29
2023-02-11T05:47:41.720Z,6.46
2023-02-11T05:50:08.208Z,6.57
2023-02-11T05:52:34.674Z,6.29
2023-02-11T05:55:01.249Z,6.41
2023-02-11T05:57:27.625Z,6.32
2023-02-11T05:59:54.073Z,6.24
2023-02-11T06:02:20.636Z,6.21
2023-02-11T06:04:47.172Z,5.99
2023-02-11T06:07:13.614Z,6.53
2023-02-11T06:09:39.981Z,6.41
2023-02-11T06:12:06.570Z,6.51
2023-02-11T06:14:34.174Z,6.60
2023-02-11T06:17:00.946Z,6.32
2023-02-11T06:19:27.413Z,6.24
2023-02-11T06:21:53.801Z,6.56
2023-02-11T06:24:38.477Z,6.40
2023-02-11T06:27:06.778Z,6.85
2023-02-11T06:29:33.265Z,6.65
2023-02-11T06:31:59.836Z,6.52
2023-02-11T06:34:26.357Z,6.53
2023-02-11T06:36:52.733Z,6.86
2023-02-11T06:39:19.099Z,6.71
2023-02-11T06:41:45.498Z,6.96
2023-02-11T06:44:11.949Z,6.96
2023-02-11T06:46:38.402Z,6.73
2023-02-11T06:49:04.997Z,6.62
2023-02-11T06:51:31.448Z,6.90
2023-02-11T06:53:57.919Z,6.46
2023-02-11T06:56:27.205Z,7.00
2023-02-11T06:58:57.944Z,6.95
2023-02-11T07:01:25.762Z,6.82
2023-02-11T07:03:52.530Z,7.03
2023-02-11T07:06:21.733Z,6.80
2023-02-11T07:08:48.716Z,6.91
2023-02-11T07:11:17.722Z,6.53
2023-02-11T07:13:44.118Z,6.81
2023-02-11T07:16:13.930Z,7.13
2023-02-11T07:18:40.509Z,6.62
2023-02-11T07:21:08.942Z,6.98
2023-02-11T07:23:36.488Z,7.12
2023-02-11T07:26:04.790Z,7.15
2023-02-11T07:28:31.375Z,6.79
2023-02-11T07:30:58.259Z,7.02
2023-02-11T07:33:24.675Z,7.09
2023-02-11T07:35:51.507Z,6.94
2023-02-11T07:38:18.106Z,6.92
2023-02-11T07:40:44.588Z,7.05
2023-02-11T07:43:11.030Z,6.65
2023-02-11T07:45:39.359Z,6.53
2023-02-11T07:48:05.886Z,6.90
2023-02-11T07:50:32.320Z,7.05
2023-02-11T07:52:58.722Z,7.02
2023-02-11T07:55:25.134Z,7.03
2023-02-11T07:57:51.645Z,7.13
2023-02-11T08:00:20.806Z,7.16
2023-02-11T08:02:47.683Z,7.18
2023-02-11T08:05:14.111Z,6.97
2023-02-11T08:07:40.585Z,7.42
2023-02-11T08:10:07.255Z,7.09
2023-02-11T08:12:33.733Z,7.25
2023-02-11T08:15:00.209Z,7.23
2023-02-11T08:17:29.590Z,7.30
2023-02-11T08:19:56.093Z,7.30
2023-02-11T08:22:22.450Z,7.50
2023-02-11T08:24:51.419Z,7.33
2023-02-11T08:27:18.730Z,7.24
2023-02-11T08:29:45.153Z,7.27
2023-02-11T08:32:11.668Z,7.22
2023-02-11T08:34:38.157Z,7.46
2023-02-11T08:37:04.545Z,7.27
2023-02-11T08:39:30.904Z,7.67
2023-02-11T08:41:57.844Z,7.72
2023-02-11T08:44:24.414Z,7.63
2023-02-11T08:46:51.000Z,7.38
2023-02-11T08:49:17.489Z,7.80
2023-02-11T08:51:44.278Z,7.81
2023-02-11T08:54:10.994Z,7.61
2023-02-11T08:56:38.647Z,7.69
2023-02-11T08:59:05.874Z,7.92
2023-02-11T09:01:32.437Z,7.63
2023-02-11T09:03:59.001Z,7.60
2023-02-11T09:06:26.058Z,7.88
2023-02-11T09:08:55.078Z,7.89
2023-02-11T09:11:25.993Z,7.51
2023-02-11T09:13:54.383Z,8.06
2023-02-11T09:16:24.731Z,8.20
2023-02-11T09:18:51.259Z,7.99
2023-02-11T09:21:18.405Z,8.07
2023-02-11T09:23:47.601Z,7.94
2023-02-11T09:26:19.678Z,8.06
2023-02-11T09:28:46.394Z,8.26
2023-02-11T09:31:15.488Z,8.24
2023-02-11T09:33:47.653Z,8.35
2023-02-11T09:36:16.621Z,8.36
2023-02-11T09:38:43.353Z,8.50
2023-02-11T09:41:28.676Z,8.35
2023-02-11T09:43:57.219Z,8.40
2023-02-11T09:46:24.664Z,8.48
2023-02-11T09:48:53.435Z,8.32
2023-02-11T09:51:34.032Z,7.91
2023-02-11T09:54:18.401Z,8.40
2023-02-11T09:56:44.849Z,8.43
2023-02-11T09:59:15.210Z,8.52
2023-02-11T10:01:50.282Z,8.56
2023-02-11T10:04:49.259Z,8.79
2023-02-11T10:07:22.693Z,8.79
2023-02-11T10:10:03.205Z,9.02
2023-02-11T10:13:06.124Z,9.00
2023-02-11T10:15:46.587Z,9.51
2023-02-11T10:18:34.453Z,9.76
2023-02-11T10:21:22.041Z,9.82
2023-02-11T10:23:51.758Z,10.23
2023-02-11T10:26:19.269Z,10.26
2023-02-11T10:28:51.093Z,9.86
2023-02-11T10:31:21.890Z,10.22
2023-02-11T10:33:57.391Z,10.11
2023-02-11T10:36:27.635Z,9.84
2023-02-11T10:38:54.006Z,10.02
2023-02-11T10:41:24.461Z,9.93
2023-02-11T10:43:51.109Z,9.53
2023-02-11T10:46:19.679Z,9.32
2023-02-11T10:48:51.552Z,9.81
2023-02-11T10:51:23.481Z,9.95
2023-02-11T10:53:51.593Z,9.70
2023-02-11T10:56:24.331Z,10.03
2023-02-11T10:59:27.562Z,10.14
2023-02-11T11:01:57.368Z,10.12
2023-02-11T11:04:29.909Z,10.14
2023-02-11T11:06:57.287Z,10.06
2023-02-11T11:09:31.198Z,10.28
2023-02-11T11:11:57.591Z,10.32
2023-02-11T11:14:28.808Z,10.24
2023-02-11T11:16:55.753Z,10.25
2023-02-11T11:19:24.328Z,10.59
2023-02-11T11:21:53.150Z,10.62
2023-02-11T11:24:29.376Z,10.53
2023-02-11T11:26:58.289Z,10.59
2023-02-11T11:29:33.887Z,10.30
2023-02-11T11:32:05.160Z,10.87
2023-02-11T11:34:35.030Z,10.97
2023-02-11T11:37:02.293Z,10.89
2023-02-11T11:39:33.738Z,10.86
2023-02-11T11:42:26.693Z,10.64
2023-02-11T11:45:00.789Z,10.98
2023-02-11T11:47:32.085Z,11.17
2023-02-11T11:50:25.809Z,11.10
2023-02-11T11:53:01.720Z,10.88
2023-02-11T11:55:44.390Z,11.10
2023-02-11T11:58:15.770Z,11.18
2023-02-11T12:00:44.435Z,11.29
2023-02-11T12:03:31.693Z,11.01
2023-02-11T12:06:24.718Z,11.11
2023-02-11T12:09:09.904Z,11.15
2023-02-11T12:12:02.033Z,11.25
2023-02-11T12:14:47.893Z,11.43
2023-02-11T12:17:35.647Z,11.52
2023-02-11T12:20:36.124Z,11.75
2023-02-11T12:23:38.788Z,12.01
2023-02-11T12:26:12.866Z,12.26
2023-02-11T12:28:58.323Z,12.22
2023-02-11T12:31:55.076Z,12.32
2023-02-11T12:34:36.479Z,12.46
2023-02-11T12:37:12.006Z,12.35
2023-02-11T12:39:47.324Z,12.23
2023-02-11T12:43:06.581Z,12.53
2023-02-11T12:45:35.877Z,12.24
2023-02-11T12:48:22.843Z,12.38
2023-02-11T12:51:04.360Z,12.42
2023-02-11T12:53:44.864Z,12.60
2023-02-11T12:56:16.301Z,12.91
2023-02-11T12:58:45.835Z,12.59
2023-02-11T13:01:26.697Z,13.14
2023-02-11T13:03:57.705Z,13.21
2023-02-11T13:06:29.444Z,12.93
2023-02-11T13:09:06.986Z,12.94
2023-02-11T13:11:38.050Z,13.07
2023-02-11T13:14:11.729Z,13.27
2023-02-11T13:16:42.300Z,13.31
2023-02-11T13:19:17.950Z,13.66
2023-02-11T13:22:16.522Z,13.29
2023-02-11T13:25:20.349Z,13.29
2023-02-11T13:28:05.402Z,13.27
2023-02-11T13:30:35.043Z,13.18
2023-02-11T13:33:01.497Z,13.26
2023-02-11T13:36:04.390Z,12.89
2023-02-11T13:38:32.050Z,12.84
2023-02-11T13:41:06.101Z,12.72
2023-02-11T13:43:34.773Z,12.77
2023-02-11T13:46:06.660Z,12.36
2023-02-11T13:48:38.210Z,12.25
2023-02-11T13:51:10.917Z,12.27
2023-02-11T13:53:53.225Z,12.33
2023-02-11T13:56:30.208Z,12.16
2023-02-11T13:58:59.049Z,12.27
2023-02-11T14:01:40.046Z,12.28
2023-02-11T14:04:42.920Z,12.47
2023-02-11T14:07:49.746Z,12.55
2023-02-11T14:10:41.082Z,12.47
2023-02-11T14:13:26.796Z,12.59
2023-02-11T14:16:20.501Z,12.63
2023-02-11T14:18:54.814Z,12.71
2023-02-11T14:21:30.454Z,12.55
2023-02-11T14:24:04.627Z,12.59
2023-02-11T14:26:41.486Z,12.64
2023-02-11T14:29:28.716Z,12.68
2023-02-11T14:32:00.772Z,12.43
2023-02-11T14:34:36.321Z,12.29
2023-02-11T14:37:05.774Z,12.61
2023-02-11T14:39:54.426Z,12.58
2023-02-11T14:42:25.374Z,12.26
2023-02-11T14:44:53.605Z,12.27
2023-02-11T14:47:24.313Z,12.30
2023-02-11T14:49:50.935Z,11.82
2023-02-11T14:52:26.996Z,12.17
2023-02-11T14:55:01.990Z,12.13
2023-02-11T14:57:29.635Z,12.06
2023-02-11T15:00:20.710Z,12.36
2023-02-11T15:02:47.444Z,12.14
2023-02-11T15:05:22.525Z,12.37
2023-02-11T15:07:54.726Z,12.17
2023-02-11T15:10:28.820Z,12.26
2023-02-11T15:12:55.736Z,12.17
2023-02-11T15:15:22.265Z,12.21
2023-02-11T15:17:48.735Z,11.96
2023-02-11T15:20:35.849Z,11.80
2023-02-11T15:23:04.862Z,11.83
2023-02-11T15:25:34.086Z,11.94
2023-02-11T15:28:00.835Z,11.50
2023-02-11T15:30:30.896Z,12.03
2023-02-11T15:33:00.167Z,11.96
2023-02-11T15:35:30.164Z,11.82
2023-02-11T15:37:57.408Z,11.28
2023-02-11T15:40:28.978Z,11.30
2023-02-11T15:43:02.675Z,11.25
2023-02-11T15:45:54.975Z,11.19
2023-02-11T15:48:43.035Z,11.23
2023-02-11T15:51:24.335Z,11.25
2023-02-11T15:54:19.046Z,11.20
2023-02-11T15:56:51.034Z,10.84
2023-02-11T15:59:20.781Z,11.19
2023-02-11T16:01:48.413Z,10.98
2023-02-11T16:04:20.607Z,11.21
2023-02-11T16:06:51.126Z,10.97
2023-02-11T16:09:35.310Z,10.99
2023-02-11T16:12:07.388Z,10.76
2023-02-11T16:14:39.295Z,10.76
2023-02-11T16:17:09.788Z,10.71
2023-02-11T16:19:37.172Z,10.58
2023-02-11T16:22:09.095Z,9.92
2023-02-11T16:24:36.760Z,10.51
2023-02-11T16:27:05.359Z,10.24
2023-02-11T16:29:35.188Z,9.85
2023-02-11T16:32:10.206Z,10.26
2023-02-11T16:34:36.688Z,9.86
2023-02-11T16:37:05.185Z,10.17
2023-02-11T16:39:31.657Z,9.91
2023-02-11T16:41:58.394Z,9.80
2023-02-11T16:44:24.826Z,9.34
2023-02-11T16:46:52.673Z,9.29
2023-02-11T16:49:40.902Z,9.82
2023-02-11T16:52:09.536Z,9.74
2023-02-11T16:54:36.056Z,9.25
2023-02-11T16:57:05.478Z,9.71
2023-02-11T16:59:31.838Z,9.17
2023-02-11T17:01:58.371Z,9.27
2023-02-11T17:04:27.550Z,9.55
2023-02-11T17:06:55.963Z,9.56
2023-02-11T17:09:28.363Z,9.61
2023-02-11T17:11:56.285Z,9.36
2023-02-11T17:14:22.832Z,9.50
2023-02-11T17:16:49.465Z,9.09
2023-02-11T17:19:20.704Z,9.61
2023-02-11T17:21:48.784Z,9.55
2023-02-11T17:24:15.584Z,9.51
2023-02-11T17:26:43.592Z,9.56
2023-02-11T17:29:12.296Z,9.55
2023-02-11T17:31:39.857Z,9.55
2023-02-11T17:34:07.000Z,9.37
2023-02-11T17:36:33.911Z,9.32
2023-02-11T17:39:00.955Z,9.15
2023-02-11T17:41:27.970Z,9.25
2023-02-11T17:43:57.879Z,9.24
2023-02-11T17:46:24.385Z,9.29
2023-02-11T17:48:52.793Z,8.90
2023-02-11T17:51:26.545Z,9.32
2023-02-11T17:53:53.503Z,9.40
2023-02-11T17:56:20.561Z,9.13
2023-02-11T17:58:47.025Z,8.94
2023-02-11T18:01:13.512Z,9.14
2023-02-11T18:03:40.050Z,8.66
2023-02-11T18:06:07.439Z,8.98
2023-02-11T18:08:34.771Z,8.58
2023-02-11T18:11:01.444Z,9.15
2023-02-11T18:13:28.684Z,9.14
2023-02-11T18:15:55.829Z,9.23
2023-02-11T18:18:22.253Z,8.96
2023-02-11T18:20:58.858Z,9.20
2023-02-11T18:23:25.892Z,9.00
2023-02-11T18:25:52.596Z,9.10
2023-02-11T18:28:19.274Z,8.94
2023-02-11T18:30:45.765Z,9.12
2023-02-11T18:33:14.277Z,9.03
2023-02-11T18:35:41.744Z,8.97
2023-02-11T18:38:09.018Z,8.98
2023-02-11T18:40:38.528Z,9.16
2023-02-11T18:43:04.966Z,8.49
2023-02-11T18:45:31.682Z,8.49
2023-02-11T18:48:01.485Z,8.99
2023-02-11T18:50:27.906Z,8.93
2023-02-11T18:52:54.338Z,8.54
2023-02-11T18:55:25.228Z,9.11
2023-02-11T18:57:52.797Z,8.96
2023-02-11T19:00:19.986Z,8.80
2023-02-11T19:02:46.536Z,8.86
2023-02-11T19:05:13.082Z,8.94
2023-02-11T19:07:39.591Z,8.34
2023-02-11T19:10:06.719Z,8.68
2023-02-11T19:12:33.225Z,8.87
2023-02-11T19:15:00.746Z,8.90
2023-02-11T19:17:27.641Z,8.90
2023-02-11T19:19:54.077Z,8.38
2023-02-11T19:22:20.612Z,8.67
2023-02-11T19:24:47.038Z,8.84
2023-02-11T19:27:13.409Z,8.84
2023-02-11T19:29:39.993Z,8.57
2023-02-11T19:32:06.886Z,8.82
2023-02-11T19:34:40.835Z,8.25
2023-02-11T19:37:10.670Z,8.78
2023-02-11T19:39:37.081Z,8.74
2023-02-11T19:42:03.999Z,8.77
2023-02-11T19:44:30.435Z,8.73
2023-02-11T19:46:56.925Z,8.22
2023-02-11T19:49:24.500Z,8.75
2023-02-11T19:51:52.617Z,8.87
2023-02-11T19:54:20.307Z,8.86
2023-02-11T19:56:47.275Z,8.70
2023-02-11T19:59:14.503Z,8.90
2023-02-11T20:01:41.115Z,8.78
2023-02-11T20:04:08.156Z,8.83
2023-02-11T20:06:35.082Z,8.67
2023-02-11T20:09:06.013Z,8.62
2023-02-11T20:11:33.185Z,8.62
2023-02-11T20:14:00.216Z,8.86
2023-02-11T20:16:44.688Z,8.83
2023-02-11T20:19:17.467Z,8.53
2023-02-11T20:21:46.696Z,8.86
2023-02-11T20:24:13.451Z,8.61
2023-02-11T20:26:42.244Z,8.62
2023-02-11T20:29:08.924Z,8.61
2023-02-11T20:31:35.824Z,8.76
2023-02-11T20:34:02.461Z,8.58
2023-02-11T20:36:31.930Z,8.69
2023-02-11T20:38:59.433Z,8.61
2023-02-11T20:41:28.461Z,8.75
2023-02-11T20:43:55.837Z,8.51
2023-02-11T20:46:25.172Z,8.56
2023-02-11T20:48:52.836Z,8.79
2023-02-11T20:51:22.354Z,8.75
2023-02-11T20:53:51.004Z,8.55
2023-02-11T20:56:20.764Z,8.69
2023-02-11T20:58:47.286Z,8.38
2023-02-11T21:01:18.532Z,8.60
2023-02-11T21:03:50.832Z,8.59
2023-02-11T21:06:18.149Z,8.70
2023-02-11T21:08:44.776Z,8.55
2023-02-11T21:11:11.711Z,8.60
2023-02-11T21:13:40.165Z,8.65
2023-02-11T21:16:07.609Z,8.64
2023-02-11T21:18:34.620Z,8.53
2023-02-11T21:21:01.120Z,8.33
2023-02-11T21:23:29.075Z,8.57
2023-02-11T21:25:56.545Z,8.59
2023-02-11T21:28:26.325Z,8.55
2023-02-11T21:30:54.110Z,8.51
2023-02-11T21:33:21.205Z,8.56
2023-02-11T21:35:48.760Z,8.45
2023-02-11T21:38:15.162Z,8.18
2023-02-11T21:40:41.876Z,8.26
2023-02-11T21:43:08.366Z,8.40
2023-02-11T21:45:34.801Z,8.40
2023-02-11T21:48:01.364Z,8.35
2023-02-11T21:50:27.814Z,8.50
2023-02-11T21:52:54.206Z,8.31
2023-02-11T21:55:20.653Z,8.26
2023-02-11T21:57:47.062Z,8.40
2023-02-11T22:00:14.049Z,8.12
2023-02-11T22:02:40.543Z,8.21
2023-02-11T22:05:06.987Z,8.31
2023-02-11T22:07:35.833Z,8.09
2023-02-11T22:10:02.807Z,8.35
2023-02-11T22:12:29.234Z,8.22
2023-02-11T22:14:55.624Z,8.20
2023-02-11T22:17:23.093Z,7.75
2023-02-11T22:19:49.722Z,8.29
2023-02-11T22:22:18.290Z,8.14
2023-02-11T22:24:47.941Z,7.94
2023-02-11T22:27:17.370Z,8.18
2023-02-11T22:29:45.254Z,8.20
2023-02-11T22:32:11.898Z,8.27
2023-02-11T22:34:38.750Z,8.27
2023-02-11T22:37:05.365Z,7.74
2023-02-11T22:39:31.852Z,7.73
2023-02-11T22:41:58.341Z,7.73
2023-02-11T22:44:24.938Z,8.16
2023-02-11T22:46:52.116Z,8.40
2023-02-11T22:49:20.322Z,8.38
2023-02-11T22:51:47.257Z,8.34
2023-02-11T22:54:16.432Z,8.20
2023-02-11T22:56:43.229Z,8.29
2023-02-11T22:59:12.987Z,8.38
2023-02-11T23:01:39.557Z,8.06
2023-02-11T23:04:07.311Z,8.35
2023-02-11T23:06:34.231Z,8.40
2023-02-11T23:09:00.766Z,7.74
2023-02-11T23:11:29.150Z,7.97
2023-02-11T23:13:55.783Z,8.15
2023-02-11T23:16:25.684Z,8.33
2023-02-11T23:18:54.058Z,8.25
2023-02-11T23:21:25.760Z,8.14
2023-02-11T23:23:57.125Z,8.32
2023-02-11T23:26:23.857Z,8.22
2023-02-11T23:28:50.637Z,8.38
2023-02-11T23:31:29.001Z,8.26
2023-02-11T23:33:55.484Z,7.98
2023-02-11T23:36:23.207Z,8.33
2023-02-11T23:38:49.809Z,8.26
2023-02-11T23:41:16.875Z,8.33
2023-02-11T23:43:43.786Z,7.65
2023-02-11T23:46:11.021Z,8.05
2023-02-11T23:48:37.806Z,8.29
2023-02-11T23:51:04.557Z,8.11
2023-02-11T23:53:30.964Z,8.26
2023-02-11T23:55:57.430Z,8.20
2023-02-11T23:58:24.026Z,7.90
